Time;durP1;ratioP1;P1;durP2;ratioP2;P2;SDS_P1;SDS_P2;PMS_P1;PMS_P2;Temp;Humidity;BMP_temperature;BMP_pressure;BME280_temperature;BME280_humidity;BME280_pressure;Samples;Min_cycle;Max_cycle;Signal;HPM_P1;HPM_P2
2023/01/24 00:01:17;;;;;;;10.85;9.27;;;3.30;99.90;;;;;;5114607;28;20229;-82
2023/01/24 00:03:45;;;;;;;11.55;10.45;;;3.20;99.90;;;;;;5114191;28;20231;-82
2023/01/24 00:06:16;;;;;;;10.60;9.50;;;3.20;99.90;;;;;;5114548;28;20211;-82
2023/01/24 00:08:44;;;;;;;11.40;10.20;;;3.30;99.90;;;;;;5114356;28;20212;-82
2023/01/24 00:11:14;;;;;;;12.98;11.65;;;3.20;99.90;;;;;;5114496;28;20215;-82
2023/01/24 00:13:42;;;;;;;10.82;9.73;;;3.30;99.90;;;;;;5114374;28;20219;-82
2023/01/24 00:16:14;;;;;;;32.08;10.93;;;3.20;99.90;;;;;;5113921;28;20221;-82
2023/01/24 00:18:42;;;;;;;12.25;10.95;;;3.30;99.90;;;;;;5114500;28;20294;-82
2023/01/24 00:21:13;;;;;;;10.35;9.45;;;3.20;99.90;;;;;;5114152;28;20208;-82
2023/01/24 00:23:43;;;;;;;11.65;10.48;;;3.30;99.90;;;;;;5113173;28;20232;-81
2023/01/24 00:26:12;;;;;;;11.35;10.18;;;3.30;99.90;;;;;;5113658;28;20218;-82
2023/01/24 00:28:40;;;;;;;12.48;10.32;;;3.30;99.90;;;;;;5113857;28;20207;-82
2023/01/24 00:31:09;;;;;;;13.77;9.57;;;3.30;99.90;;;;;;5114254;28;20204;-82
2023/01/24 00:33:37;;;;;;;10.75;9.68;;;3.30;99.90;;;;;;5114068;28;20224;-83
2023/01/24 00:36:07;;;;;;;14.20;11.38;;;3.30;99.90;;;;;;5113726;28;20211;-82
2023/01/24 00:38:35;;;;;;;12.05;10.25;;;3.30;99.90;;;;;;5113798;28;20243;-83
2023/01/24 00:41:05;;;;;;;13.23;10.48;;;3.30;99.90;;;;;;5113933;28;20214;-82
2023/01/24 00:43:33;;;;;;;12.27;9.65;;;3.20;99.90;;;;;;5116122;28;20234;-82
2023/01/24 00:46:02;;;;;;;15.25;11.40;;;3.20;99.90;;;;;;5116366;28;20271;-82
2023/01/24 00:48:30;;;;;;;12.32;10.32;;;3.20;99.90;;;;;;5116050;28;20204;-82
2023/01/24 00:50:59;;;;;;;10.85;9.32;;;3.20;99.90;;;;;;5115946;28;20290;-83
2023/01/24 00:53:27;;;;;;;11.63;10.32;;;3.30;99.90;;;;;;5114494;28;20220;-82
2023/01/24 00:55:55;;;;;;;12.63;10.05;;;3.20;99.90;;;;;;5116000;28;20220;-82
2023/01/24 00:58:25;;;;;;;12.23;10.15;;;3.20;99.90;;;;;;5116026;28;20204;-82
2023/01/24 01:00:58;;;;;;;11.13;10.00;;;3.20;99.90;;;;;;5115754;28;20214;-82
2023/01/24 01:03:26;;;;;;;19.17;11.23;;;3.20;99.90;;;;;;5115270;28;20224;-83
2023/01/24 01:06:01;;;;;;;11.13;10.02;;;3.20;99.90;;;;;;5115914;28;20199;-83
2023/01/24 01:08:29;;;;;;;18.25;11.50;;;3.20;99.90;;;;;;5115403;28;20214;-82
2023/01/24 01:10:58;;;;;;;11.23;10.13;;;3.20;99.90;;;;;;5115708;28;20203;-82
2023/01/24 01:13:28;;;;;;;12.73;9.50;;;3.20;99.90;;;;;;5115536;28;20231;-83
2023/01/24 01:16:02;;;;;;;10.70;9.60;;;3.20;99.90;;;;;;5115604;28;20223;-83
2023/01/24 01:18:30;;;;;;;12.27;10.10;;;3.20;99.90;;;;;;5115294;28;20196;-83
2023/01/24 01:20:58;;;;;;;11.38;9.40;;;3.20;99.90;;;;;;5115365;28;20207;-82
2023/01/24 01:23:27;;;;;;;12.13;10.40;;;3.20;99.90;;;;;;5115423;28;20226;-83
2023/01/24 01:25:59;;;;;;;12.35;10.40;;;3.20;99.90;;;;;;5115592;28;20212;-83
2023/01/24 01:28:30;;;;;;;14.38;9.00;;;3.20;99.90;;;;;;5115336;28;20214;-83
2023/01/24 01:31:00;;;;;;;14.82;10.07;;;3.20;99.90;;;;;;5115319;28;20203;-82
2023/01/24 01:33:28;;;;;;;11.30;10.13;;;3.20;99.90;;;;;;5115126;28;20287;-83
2023/01/24 01:35:56;;;;;;;11.00;9.65;;;3.20;99.90;;;;;;5115350;28;20203;-83
2023/01/24 01:38:27;;;;;;;11.25;10.00;;;3.20;99.90;;;;;;5114764;28;20203;-83
2023/01/24 01:40:56;;;;;;;11.55;9.70;;;3.20;99.90;;;;;;5115447;28;20196;-83
2023/01/24 01:43:26;;;;;;;8.82;7.95;;;3.10;99.90;;;;;;5114775;28;20220;-83
2023/01/24 01:46:00;;;;;;;10.93;9.75;;;3.10;99.90;;;;;;5115225;28;20207;-83
2023/01/24 01:48:37;;;;;;;11.50;8.98;;;3.10;99.90;;;;;;5114573;28;20241;-83
2023/01/24 01:51:12;;;;;;;11.73;9.75;;;3.20;99.90;;;;;;5114837;28;20203;-83
2023/01/24 01:53:47;;;;;;;14.10;11.00;;;3.20;99.90;;;;;;5114918;28;20231;-83
2023/01/24 01:56:23;;;;;;;10.07;9.10;;;3.10;99.90;;;;;;5114872;28;20203;-83
2023/01/24 01:58:52;;;;;;;13.70;10.90;;;3.10;99.90;;;;;;5114352;28;20203;-83
2023/01/24 02:01:22;;;;;;;15.60;9.98;;;3.20;99.90;;;;;;5115009;28;20227;-83
2023/01/24 02:03:54;;;;;;;12.95;10.68;;;3.20;99.90;;;;;;5113974;28;20222;-83
2023/01/24 02:06:38;;;;;;;11.38;9.25;;;3.20;99.90;;;;;;5114929;28;20207;-83
2023/01/24 02:09:09;;;;;;;12.05;9.50;;;3.20;99.90;;;;;;5114373;28;20208;-83
2023/01/24 02:11:39;;;;;;;14.05;9.45;;;3.20;99.90;;;;;;5114206;28;20200;-83
2023/01/24 02:16:57;;;;;;;10.57;9.48;;;3.10;99.90;;;;;;5114644;28;20202;-83
2023/01/24 02:19:47;;;;;;;10.27;9.27;;;3.10;99.90;;;;;;5114455;28;20204;-83
2023/01/24 02:22:20;;;;;;;11.60;9.82;;;3.10;99.90;;;;;;5113677;28;20199;-83
2023/01/24 02:25:00;;;;;;;10.10;8.57;;;3.10;99.90;;;;;;5113687;28;20230;-83
2023/01/24 02:27:30;;;;;;;10.77;9.68;;;3.10;99.90;;;;;;5113956;28;20218;-83
2023/01/24 02:29:59;;;;;;;9.80;8.80;;;3.10;99.90;;;;;;5114338;28;20204;-83
2023/01/24 02:32:27;;;;;;;12.57;9.93;;;3.10;99.90;;;;;;5113972;28;20200;-84
2023/01/24 02:34:55;;;;;;;10.82;9.52;;;3.10;99.90;;;;;;5114190;28;20203;-83
2023/01/24 02:37:25;;;;;;;9.60;8.68;;;3.10;99.90;;;;;;5113779;28;20207;-83
2023/01/24 02:39:59;;;;;;;15.10;10.18;;;3.10;99.90;;;;;;5113899;28;20210;-84
2023/01/24 02:42:33;;;;;;;9.70;8.80;;;3.10;99.90;;;;;;5114029;28;20214;-83
2023/01/24 02:45:09;;;;;;;12.70;10.35;;;3.10;99.90;;;;;;5113603;28;20298;-83
2023/01/24 02:47:41;;;;;;;15.93;10.63;;;3.10;99.90;;;;;;5113226;28;20211;-84
2023/01/24 02:50:10;;;;;;;10.00;8.98;;;3.10;99.90;;;;;;5114308;28;20208;-83
2023/01/24 02:55:24;;;;;;;10.13;9.13;;;3.00;99.90;;;;;;5114065;28;20210;-83
2023/01/24 02:58:06;;;;;;;9.73;8.73;;;3.10;99.90;;;;;;5113110;28;20212;-83
2023/01/24 03:00:35;;;;;;;11.82;10.18;;;3.00;99.90;;;;;;5113879;28;20208;-83
2023/01/24 03:03:03;;;;;;;10.45;8.93;;;3.00;99.90;;;;;;5113547;28;20227;-83
2023/01/24 03:05:39;;;;;;;11.23;10.10;;;3.00;99.90;;;;;;5113330;28;20250;-83
2023/01/24 03:08:08;;;;;;;10.68;9.57;;;3.10;99.90;;;;;;5113550;28;20199;-83
2023/01/24 03:10:36;;;;;;;15.10;10.88;;;3.00;99.90;;;;;;5113856;28;20235;-83
2023/01/24 03:35:12;;;;;;;11.32;9.73;;;3.00;99.90;;;;;;5112919;28;20203;-83
2023/01/24 03:40:27;;;;;;;12.40;11.00;;;3.00;99.90;;;;;;5113340;28;20204;-83
2023/01/24 03:42:55;;;;;;;11.75;9.73;;;3.00;99.90;;;;;;5112895;28;20226;-83
2023/01/24 03:45:27;;;;;;;13.68;11.20;;;3.00;99.90;;;;;;5112723;28;20310;-83
2023/01/24 03:47:57;;;;;;;12.23;10.93;;;3.00;99.90;;;;;;5113000;28;20215;-83
2023/01/24 03:53:14;;;;;;;11.63;10.38;;;3.00;99.90;;;;;;5113008;28;20231;-83
2023/01/24 03:55:42;;;;;;;11.82;10.52;;;3.00;99.90;;;;;;5112776;28;20203;-83
2023/01/24 03:58:11;;;;;;;14.00;12.27;;;3.00;99.90;;;;;;5112466;28;20267;-83
2023/01/24 04:00:41;;;;;;;13.63;10.98;;;3.00;99.90;;;;;;5112799;28;20211;-83
2023/01/24 04:03:09;;;;;;;10.65;9.63;;;3.00;99.90;;;;;;5113085;28;20227;-83
2023/01/24 04:05:37;;;;;;;13.25;10.90;;;3.00;99.90;;;;;;5112699;28;20230;-83
2023/01/24 04:08:07;;;;;;;13.20;11.20;;;3.00;99.90;;;;;;5112553;28;20214;-83
2023/01/24 04:10:36;;;;;;;21.20;11.77;;;3.00;99.90;;;;;;5112985;28;20204;-83
2023/01/24 04:13:04;;;;;;;13.45;10.50;;;3.00;99.90;;;;;;5112723;28;20230;-83
2023/01/24 04:15:33;;;;;;;10.57;9.52;;;3.00;99.90;;;;;;5112945;28;20279;-83
2023/01/24 04:18:04;;;;;;;10.98;9.98;;;3.00;99.90;;;;;;5112665;28;20203;-83
2023/01/24 04:20:35;;;;;;;11.57;10.50;;;3.00;99.90;;;;;;5112578;28;20218;-83
2023/01/24 04:23:05;;;;;;;21.33;12.95;;;3.00;99.90;;;;;;5112507;28;20247;-83
2023/01/24 04:25:34;;;;;;;13.98;11.63;;;3.00;99.90;;;;;;5112505;28;20232;-83
2023/01/24 04:28:02;;;;;;;17.42;12.05;;;2.90;99.90;;;;;;5115764;28;20304;-83
2023/01/24 04:30:31;;;;;;;12.68;11.43;;;2.90;99.90;;;;;;5116287;28;20203;-83
2023/01/24 04:32:59;;;;;;;13.27;11.63;;;2.90;99.90;;;;;;5116384;28;20224;-83
2023/01/24 04:35:30;;;;;;;18.20;12.25;;;2.90;99.90;;;;;;5116381;28;20207;-83
2023/01/24 04:38:00;;;;;;;12.65;10.93;;;2.90;99.90;;;;;;5115974;28;20303;-82
2023/01/24 04:40:28;;;;;;;13.50;11.88;;;2.90;99.90;;;;;;5116440;28;20218;-83
2023/01/24 04:42:57;;;;;;;22.73;12.95;;;2.90;99.90;;;;;;5116277;28;20227;-83
2023/01/24 04:45:26;;;;;;;13.10;11.45;;;2.90;99.90;;;;;;5116198;28;20220;-83
2023/01/24 04:47:54;;;;;;;21.00;13.07;;;2.90;99.90;;;;;;5115896;28;20291;-83
2023/01/24 04:50:23;;;;;;;12.70;11.40;;;2.80;99.90;;;;;;5116014;28;20214;-83
2023/01/24 04:52:53;;;;;;;15.70;12.45;;;2.90;99.90;;;;;;5116160;28;20237;-83
2023/01/24 04:55:21;;;;;;;13.07;11.43;;;2.80;99.90;;;;;;5115709;28;20214;-83
2023/01/24 04:57:50;;;;;;;15.23;13.02;;;2.90;99.90;;;;;;5115901;28;20246;-83
2023/01/24 05:00:18;;;;;;;13.82;12.45;;;2.90;99.90;;;;;;5115880;28;20227;-82
2023/01/24 05:02:46;;;;;;;16.75;13.30;;;2.90;99.90;;;;;;5115474;28;20224;-83
2023/01/24 05:05:15;;;;;;;16.88;11.93;;;2.80;99.90;;;;;;5115414;28;20224;-83
2023/01/24 05:07:43;;;;;;;14.18;11.80;;;2.90;99.90;;;;;;5115402;28;20205;-82
2023/01/24 05:10:13;;;;;;;14.93;12.02;;;2.90;99.90;;;;;;5115557;28;20207;-82
2023/01/24 05:12:41;;;;;;;16.75;13.00;;;2.90;99.90;;;;;;5115198;28;20224;-82
2023/01/24 05:15:10;;;;;;;20.88;12.43;;;2.80;99.90;;;;;;5115483;28;20199;-83
2023/01/24 05:17:38;;;;;;;12.32;10.95;;;2.90;99.90;;;;;;5115295;28;20296;-83
2023/01/24 05:20:07;;;;;;;14.18;12.02;;;2.80;99.90;;;;;;5115810;28;20212;-83
2023/01/24 05:22:35;;;;;;;15.15;13.20;;;2.90;99.90;;;;;;5115151;28;20242;-83
2023/01/24 05:25:04;;;;;;;20.80;12.50;;;2.90;99.90;;;;;;5115361;28;20224;-82
2023/01/24 05:27:34;;;;;;;17.60;13.80;;;2.90;99.90;;;;;;5115175;28;20211;-83
2023/01/24 05:30:02;;;;;;;15.50;13.30;;;2.90;99.90;;;;;;5115021;28;20212;-83
2023/01/24 05:32:30;;;;;;;16.92;14.30;;;2.90;99.90;;;;;;5115205;28;20228;-83
2023/01/24 05:34:59;;;;;;;18.50;14.00;;;2.90;99.90;;;;;;5115867;28;20210;-83
2023/01/24 05:37:27;;;;;;;14.93;12.57;;;2.90;99.90;;;;;;5115137;28;20249;-83
2023/01/24 05:39:55;;;;;;;14.45;12.07;;;2.90;99.90;;;;;;5114289;28;20204;-82
2023/01/24 05:42:23;;;;;;;15.45;13.48;;;2.80;99.90;;;;;;5114838;28;20212;-82
2023/01/24 05:44:53;;;;;;;14.10;12.60;;;2.90;99.90;;;;;;5115203;28;20214;-83
2023/01/24 05:47:21;;;;;;;19.73;12.38;;;2.90;99.90;;;;;;5115001;28;20209;-83
2023/01/24 05:49:50;;;;;;;20.63;13.75;;;2.90;99.90;;;;;;5114817;28;20276;-81
2023/01/24 05:52:21;;;;;;;17.02;13.10;;;2.90;99.90;;;;;;5114777;28;20200;-82
2023/01/24 05:54:49;;;;;;;16.05;12.80;;;2.90;99.90;;;;;;5114766;28;20344;-84
2023/01/24 05:57:19;;;;;;;22.90;14.95;;;2.90;99.90;;;;;;5114373;28;20199;-82
2023/01/24 05:59:47;;;;;;;15.88;13.57;;;2.90;99.90;;;;;;5114909;28;20200;-81
2023/01/24 06:02:18;;;;;;;20.20;14.32;;;2.90;99.90;;;;;;5114808;28;20230;-82
2023/01/24 06:04:46;;;;;;;20.83;12.82;;;2.80;99.90;;;;;;5114723;28;20263;-82
2023/01/24 06:07:15;;;;;;;19.73;14.75;;;2.90;99.90;;;;;;5114183;28;20223;-82
2023/01/24 06:09:43;;;;;;;19.50;13.80;;;2.90;99.90;;;;;;5114304;28;20212;-83
2023/01/24 06:12:11;;;;;;;19.40;13.68;;;2.90;99.90;;;;;;5114483;28;20230;-82
2023/01/24 06:14:39;;;;;;;18.73;15.13;;;2.90;99.90;;;;;;5114657;28;20206;-82
2023/01/24 06:17:07;;;;;;;14.85;13.10;;;2.90;99.90;;;;;;5113997;28;20207;-82
2023/01/24 06:19:38;;;;;;;21.38;13.80;;;2.90;99.90;;;;;;5114499;28;20207;-82
2023/01/24 06:22:18;;;;;;;17.83;14.35;;;2.90;99.90;;;;;;5114204;28;20300;-82
2023/01/24 06:24:47;;;;;;;18.42;14.23;;;2.90;99.90;;;;;;5114023;28;20206;-82
2023/01/24 06:27:15;;;;;;;15.38;13.80;;;2.90;99.90;;;;;;5113528;28;20231;-82
2023/01/24 06:29:44;;;;;;;14.68;13.15;;;2.90;99.90;;;;;;5114052;28;20218;-83
2023/01/24 06:32:27;;;;;;;27.92;15.68;;;2.90;99.90;;;;;;5113408;28;20213;-83
2023/01/24 06:35:10;;;;;;;16.73;14.68;;;2.90;99.90;;;;;;5113932;28;20229;-82
2023/01/24 06:37:45;;;;;;;14.52;13.02;;;2.90;99.90;;;;;;5113383;28;20203;-83
2023/01/24 06:40:16;;;;;;;15.32;13.50;;;2.90;99.90;;;;;;5113767;28;20296;-82
2023/01/24 06:42:45;;;;;;;20.58;15.32;;;2.90;99.90;;;;;;5113440;28;20243;-82
2023/01/24 06:45:13;;;;;;;26.88;14.70;;;2.90;99.90;;;;;;5113170;28;20231;-83
2023/01/24 06:47:45;;;;;;;16.02;14.38;;;2.90;99.90;;;;;;5112598;28;20231;-83
2023/01/24 06:50:29;;;;;;;17.30;15.18;;;2.90;99.90;;;;;;5113127;28;20207;-82
2023/01/24 06:52:57;;;;;;;14.52;13.02;;;2.90;99.90;;;;;;5113782;28;20215;-83
2023/01/24 06:55:26;;;;;;;17.10;13.95;;;2.90;99.90;;;;;;5113735;28;20229;-83
2023/01/24 06:57:58;;;;;;;21.58;16.35;;;2.90;99.90;;;;;;5113703;28;20237;-83
2023/01/24 07:00:28;;;;;;;15.98;14.10;;;2.90;99.90;;;;;;5113691;28;20208;-83
2023/01/24 07:03:07;;;;;;;23.30;15.23;;;2.90;99.90;;;;;;5113233;28;20314;-83
2023/01/24 07:05:54;;;;;;;27.00;15.88;;;2.90;99.90;;;;;;5113528;28;20215;-83
2023/01/24 07:08:29;;;;;;;19.25;15.40;;;3.00;99.90;;;;;;5113146;28;20250;-83
2023/01/24 07:13:48;;;;;;;22.38;15.40;;;3.00;99.90;;;;;;5111210;28;20310;-82
2023/01/24 07:16:29;;;;;;;19.88;14.98;;;3.00;99.90;;;;;;5112911;28;20196;-83
2023/01/24 07:19:00;;;;;;;17.25;14.48;;;2.90;99.90;;;;;;5113079;28;20206;-83
2023/01/24 07:21:42;;;;;;;18.70;14.80;;;3.00;99.90;;;;;;5103927;28;20210;-83
2023/01/24 07:24:36;;;;;;;20.98;14.52;;;3.00;99.90;;;;;;5092665;28;20303;-84
2023/01/24 07:27:24;;;;;;;20.25;14.02;;;3.00;99.90;;;;;;5091980;28;20344;-85
2023/01/24 07:29:59;;;;;;;21.98;15.70;;;3.00;99.90;;;;;;5092741;28;20197;-84
2023/01/24 07:32:29;;;;;;;18.73;16.27;;;3.00;99.90;;;;;;5092181;28;20227;-82
2023/01/24 07:35:07;;;;;;;23.08;15.95;;;3.00;99.90;;;;;;5095836;28;20196;-86
2023/01/24 07:37:38;;;;;;;19.35;16.30;;;3.10;99.90;;;;;;5112137;28;20223;-82
2023/01/24 07:40:11;;;;;;;20.08;16.75;;;3.10;99.90;;;;;;5113108;28;20225;-83
2023/01/24 07:42:51;;;;;;;21.85;17.27;;;3.10;99.90;;;;;;5112879;28;20226;-83
2023/01/24 07:45:27;;;;;;;16.58;14.40;;;3.10;99.90;;;;;;5113278;28;20290;-82
2023/01/24 07:48:09;;;;;;;25.02;15.65;;;3.10;99.90;;;;;;5107729;28;20224;-82
2023/01/24 07:50:37;;;;;;;21.75;15.23;;;3.10;99.90;;;;;;5095750;28;20196;-82
2023/01/24 07:53:08;;;;;;;19.45;15.05;;;3.10;99.90;;;;;;5103276;28;20229;-82
2023/01/24 07:55:36;;;;;;;16.65;14.70;;;3.10;99.90;;;;;;5113408;28;20268;-81
2023/01/24 07:58:04;;;;;;;21.48;15.48;;;3.20;99.90;;;;;;5112758;28;20284;-82
2023/01/24 08:00:33;;;;;;;17.80;14.52;;;3.20;99.90;;;;;;5113118;28;20214;-81
2023/01/24 08:03:01;;;;;;;20.92;15.65;;;3.20;99.90;;;;;;5115861;28;20215;-82
2023/01/24 08:05:30;;;;;;;18.17;15.63;;;3.20;99.90;;;;;;5116706;28;20199;-82
2023/01/24 08:08:01;;;;;;;17.95;14.85;;;3.20;99.90;;;;;;5114956;28;20211;-82
2023/01/24 08:13:35;;;;;;;21.00;15.40;;;3.30;99.90;;;;;;5108936;28;20306;-84
2023/01/24 08:16:04;;;;;;;20.02;15.50;;;3.20;99.90;;;;;;5096162;28;20246;-83
2023/01/24 08:18:34;;;;;;;19.40;15.40;;;3.20;99.90;;;;;;5095756;28;20228;-83
2023/01/24 08:21:09;;;;;;;26.42;14.93;;;3.20;99.90;;;;;;5096254;28;20219;-83
2023/01/24 08:23:46;;;;;;;17.85;14.98;;;3.30;99.90;;;;;;5095336;28;20234;-81
2023/01/24 08:26:19;;;;;;;19.63;15.88;;;3.30;99.90;;;;;;5095518;28;20211;-83
2023/01/24 08:28:55;;;;;;;20.63;15.75;;;3.30;99.90;;;;;;5095773;28;20204;-82
2023/01/24 08:31:24;;;;;;;18.08;14.73;;;3.40;99.90;;;;;;5095898;28;20287;-82
2023/01/24 08:33:52;;;;;;;19.90;15.70;;;3.40;99.90;;;;;;5095833;28;20263;-83
2023/01/24 08:36:26;;;;;;;16.92;15.15;;;3.40;99.90;;;;;;5095594;28;20228;-82
2023/01/24 08:38:57;;;;;;;20.38;14.85;;;3.40;99.90;;;;;;5095202;28;20219;-82
2023/01/24 08:41:36;;;;;;;23.75;16.67;;;3.40;99.90;;;;;;5095642;28;20207;-83
2023/01/24 08:44:11;;;;;;;17.17;14.98;;;3.40;99.90;;;;;;5095527;28;20236;-82
2023/01/24 08:46:44;;;;;;;17.42;14.63;;;3.40;99.90;;;;;;5095328;28;20208;-82
2023/01/24 08:49:17;;;;;;;21.02;17.65;;;3.30;99.90;;;;;;5095390;28;20204;-82
2023/01/24 08:51:47;;;;;;;17.65;15.02;;;3.30;99.90;;;;;;5095548;28;20216;-82
2023/01/24 08:54:15;;;;;;;23.80;16.73;;;3.20;99.90;;;;;;5094711;28;20240;-82
2023/01/24 08:56:45;;;;;;;18.90;16.27;;;3.30;99.90;;;;;;5094938;28;20204;-81
2023/01/24 08:59:20;;;;;;;19.35;16.08;;;3.40;99.90;;;;;;5095092;28;20239;-82
2023/01/24 09:01:53;;;;;;;21.50;17.48;;;3.40;99.90;;;;;;5094859;28;20204;-82
2023/01/24 09:04:49;;;;;;;23.05;17.33;;;3.40;99.90;;;;;;5142440;22;20234;-82
2023/01/24 09:10:49;;;;;;;27.02;17.77;;;3.40;99.90;;;;;;5070597;28;20231;-82
2023/01/24 09:17:04;;;;;;;17.95;16.05;;;3.40;99.90;;;;;;5030390;28;20213;-83
2023/01/24 09:19:56;;;;;;;23.10;17.92;;;3.40;99.90;;;;;;5072517;28;20235;-82
2023/01/24 10:04:33;;;;;;;20.45;16.27;;;3.50;99.90;;;;;;5044339;23;20267;-82
2023/01/24 10:22:50;;;;;;;19.08;15.05;;;3.60;99.90;;;;;;4913660;29;20214;-83
2023/01/24 10:25:55;;;;;;;17.38;14.27;;;3.70;99.90;;;;;;4914910;29;20202;-83
2023/01/24 10:31:31;;;;;;;23.63;15.98;;;3.70;99.90;;;;;;4874572;29;20273;-83
2023/01/24 10:34:09;;;;;;;22.00;15.98;;;3.60;99.90;;;;;;4944899;28;20331;-83
2023/01/24 10:37:15;;;;;;;26.25;16.75;;;3.60;99.90;;;;;;4991475;28;20203;-83
2023/01/24 10:39:45;;;;;;;20.25;16.45;;;3.70;99.90;;;;;;4893656;29;20218;-83
2023/01/24 10:42:26;;;;;;;15.85;12.77;;;3.70;99.90;;;;;;4937509;29;20209;-83
2023/01/24 10:45:14;;;;;;;24.08;14.85;;;3.60;99.90;;;;;;4953082;29;20208;-82
2023/01/24 10:47:47;;;;;;;17.73;13.75;;;3.70;99.90;;;;;;5052394;28;20231;-82
2023/01/24 10:50:20;;;;;;;17.75;14.65;;;3.70;99.90;;;;;;5053244;28;20210;-82
2023/01/24 10:56:30;;;;;;;17.25;14.30;;;3.70;99.90;;;;;;5008670;28;20232;-82
2023/01/24 10:59:05;;;;;;;19.58;15.18;;;3.70;99.90;;;;;;5052368;28;20212;-82
2023/01/24 11:13:25;;;;;;;19.77;14.45;;;3.70;99.90;;;;;;4924476;28;20228;-81
2023/01/24 11:27:17;;;;;;;;;;;;;;;;;;;;;
2023/01/24 11:30:37;;;;;;;16.33;14.05;;;3.80;99.90;;;;;;4858282;29;20223;-83
2023/01/24 11:37:52;;;;;;;23.58;14.23;;;3.70;99.90;;;;;;4820049;29;20210;-82
2023/01/24 11:40:31;;;;;;;14.27;12.70;;;3.70;99.90;;;;;;4857834;29;20276;-82
2023/01/24 11:54:12;;;;;;;15.20;12.27;;;3.70;99.90;;;;;;4985444;22;20229;-82
2023/01/24 11:57:40;;;;;;;19.90;14.23;;;3.70;99.90;;;;;;5070238;28;20205;-82
2023/01/24 12:12:06;;;;;;;18.02;13.07;;;3.70;99.90;;;;;;4900109;29;20221;-82
2023/01/24 12:15:12;;;;;;;15.55;13.75;;;3.70;99.90;;;;;;4932731;29;20209;-82
2023/01/24 12:18:07;;;;;;;15.98;13.68;;;3.70;99.90;;;;;;4997861;28;20230;-82
2023/01/24 12:20:58;;;;;;;14.68;12.38;;;3.70;99.90;;;;;;5010261;28;20202;-82
2023/01/24 12:24:20;;;;;;;14.77;12.38;;;3.70;99.90;;;;;;5073014;22;20224;-83
2023/01/24 12:31:53;;;;;;;14.73;13.23;;;3.70;99.90;;;;;;4975099;28;20207;-83
2023/01/24 12:35:04;;;;;;;19.20;14.38;;;3.70;99.90;;;;;;4999602;28;20235;-82
2023/01/24 12:42:03;;;;;;;13.35;11.95;;;3.70;99.90;;;;;;4945335;29;20216;-83
2023/01/24 13:06:55;;;;;;;12.75;10.98;;;3.90;99.90;;;;;;4915890;29;20214;-83
2023/01/24 13:12:54;;;;;;;15.38;12.60;;;3.90;99.90;;;;;;4934665;29;20226;-82
2023/01/24 13:16:41;;;;;;;19.58;11.43;;;3.90;99.90;;;;;;4935836;29;20214;-83
2023/01/24 13:19:32;;;;;;;12.68;10.73;;;3.90;99.90;;;;;;4993567;28;20214;-83
2023/01/24 13:25:11;;;;;;;19.27;12.38;;;3.90;99.90;;;;;;5072227;28;20217;-83
2023/01/24 13:28:19;;;;;;;13.65;11.75;;;3.90;99.90;;;;;;5074710;28;20232;-83
2023/01/24 13:31:05;;;;;;;20.35;13.50;;;3.80;99.90;;;;;;5074872;28;20288;-83
2023/01/24 13:33:39;;;;;;;16.02;12.32;;;3.80;99.90;;;;;;5074072;28;20221;-84
2023/01/24 13:36:12;;;;;;;17.05;13.30;;;3.80;99.90;;;;;;5074531;28;20220;-84
2023/01/24 13:38:48;;;;;;;15.07;12.38;;;3.90;99.90;;;;;;5074303;28;20201;-84
2023/01/24 13:41:37;;;;;;;15.80;11.63;;;3.90;99.90;;;;;;5074217;28;20259;-84
2023/01/24 13:55:31;;;;;;;;;;;;;;;;;;;;;
2023/01/24 13:59:24;;;;;;;16.92;11.68;;;3.90;99.90;;;;;;4953344;28;20216;-83
2023/01/24 14:04:58;;;;;;;15.52;12.13;;;3.90;99.90;;;;;;5316221;22;20228;-82
2023/01/24 14:15:05;;;;;;;12.77;10.80;;;3.90;99.90;;;;;;5081274;28;20204;-82
2023/01/24 14:17:51;;;;;;;18.05;12.50;;;3.90;99.90;;;;;;5093563;28;20207;-82
2023/01/24 14:20:39;;;;;;;11.80;10.20;;;3.80;99.90;;;;;;5093818;28;20228;-83
2023/01/24 14:23:30;;;;;;;12.23;10.90;;;3.90;99.90;;;;;;5092977;28;20369;-82
2023/01/24 14:26:08;;;;;;;20.23;11.02;;;3.90;99.90;;;;;;5093552;28;20267;-82
2023/01/24 14:33:20;;;;;;;16.42;10.98;;;3.90;99.90;;;;;;5051146;28;20308;-83
2023/01/24 14:36:46;;;;;;;11.25;10.13;;;3.90;99.90;;;;;;5051131;28;20209;-84
2023/01/24 14:39:40;;;;;;;13.32;11.35;;;4.00;99.90;;;;;;5051357;28;20340;-84
2023/01/24 14:42:31;;;;;;;22.23;11.18;;;3.90;99.90;;;;;;5082364;28;20273;-83
2023/01/24 14:45:15;;;;;;;11.63;10.43;;;3.90;99.90;;;;;;5093353;28;20204;-83
2023/01/24 14:47:47;;;;;;;12.82;11.60;;;3.90;99.90;;;;;;5092652;28;20299;-82
2023/01/24 14:50:31;;;;;;;14.25;11.85;;;3.90;99.90;;;;;;5092662;28;20224;-82
2023/01/24 14:53:00;;;;;;;13.70;11.63;;;3.90;99.90;;;;;;5092637;28;20224;-82
2023/01/24 14:55:35;;;;;;;14.05;10.60;;;3.80;99.90;;;;;;5092713;28;20216;-83
2023/01/24 14:58:20;;;;;;;16.90;11.65;;;3.90;99.90;;;;;;5092584;28;20208;-82
2023/01/24 15:00:50;;;;;;;13.43;11.27;;;3.80;99.90;;;;;;5093373;28;20213;-83
2023/01/24 15:03:21;;;;;;;12.38;10.05;;;3.80;99.90;;;;;;5092856;28;20324;-82
2023/01/24 15:05:58;;;;;;;15.25;10.27;;;3.80;99.90;;;;;;5092458;28;20247;-83
2023/01/24 15:08:27;;;;;;;14.43;11.13;;;3.70;99.90;;;;;;5092793;28;20208;-83
2023/01/24 15:11:01;;;;;;;31.25;11.80;;;3.70;99.90;;;;;;5091918;28;20230;-82
2023/01/24 15:13:35;;;;;;;14.68;11.20;;;3.70;99.90;;;;;;5092740;28;20228;-82
2023/01/24 15:16:06;;;;;;;16.08;11.38;;;3.70;99.90;;;;;;5092256;28;20204;-83
2023/01/24 15:18:43;;;;;;;11.45;10.35;;;3.70;99.90;;;;;;5092681;28;20204;-82
2023/01/24 15:21:35;;;;;;;12.27;10.98;;;3.70;99.90;;;;;;5092536;28;20210;-82
2023/01/24 15:24:07;;;;;;;13.88;11.50;;;3.70;99.90;;;;;;5092595;28;20228;-82
2023/01/24 15:26:42;;;;;;;16.60;12.38;;;3.70;99.90;;;;;;5092835;28;20209;-83
2023/01/24 15:29:39;;;;;;;12.77;10.55;;;3.70;99.90;;;;;;5092660;28;20200;-83
2023/01/24 15:32:28;;;;;;;12.98;10.93;;;3.70;99.90;;;;;;5092234;28;20250;-82
2023/01/24 15:35:23;;;;;;;18.52;11.10;;;3.70;99.90;;;;;;5092531;28;20215;-81
2023/01/24 15:38:14;;;;;;;14.00;10.05;;;3.70;99.90;;;;;;5091994;28;20215;-83
2023/01/24 15:40:49;;;;;;;11.43;9.85;;;3.70;99.90;;;;;;5092298;28;20277;-82
2023/01/24 15:49:02;;;;;;;10.77;8.95;;;3.60;99.90;;;;;;5091865;28;20204;-83
2023/01/24 15:51:36;;;;;;;14.70;10.43;;;3.60;99.90;;;;;;5092267;28;20216;-82
2023/01/24 15:54:11;;;;;;;15.82;11.45;;;3.60;99.90;;;;;;5092185;28;20251;-82
2023/01/24 15:56:44;;;;;;;12.27;10.45;;;3.60;99.90;;;;;;5091635;28;20218;-83
2023/01/24 15:59:22;;;;;;;21.45;10.98;;;3.60;99.90;;;;;;5091979;28;20291;-83
2023/01/24 16:01:50;;;;;;;11.27;9.32;;;3.60;99.90;;;;;;5091988;28;20204;-82
2023/01/24 16:04:22;;;;;;;11.20;9.93;;;3.60;99.90;;;;;;5092438;28;20267;-82
2023/01/24 16:06:51;;;;;;;10.30;9.10;;;3.60;99.90;;;;;;5092213;28;20223;-83
2023/01/24 16:09:29;;;;;;;14.00;10.52;;;3.60;99.90;;;;;;5092091;28;20200;-83
2023/01/24 16:12:00;;;;;;;10.68;8.80;;;3.60;99.90;;;;;;5091926;28;20212;-82
2023/01/24 16:14:30;;;;;;;13.35;10.02;;;3.50;99.90;;;;;;5091823;28;20255;-82
2023/01/24 16:17:13;;;;;;;;;;;;;;;;;;;;;
2023/01/24 16:19:42;;;;;;;10.57;9.52;;;3.60;99.90;;;;;;5092209;28;20208;-82
2023/01/24 16:22:20;;;;;;;12.05;10.30;;;3.60;99.90;;;;;;5092444;28;20192;-83
2023/01/24 16:28:40;;;;;;;13.45;9.52;;;3.60;99.90;;;;;;4879154;29;20214;-82
2023/01/24 16:35:13;;;;;;;12.68;10.57;;;3.60;99.90;;;;;;4895950;29;20358;-83
2023/01/24 16:37:42;;;;;;;13.57;10.30;;;3.60;99.90;;;;;;4897697;29;20245;-82
2023/01/24 16:40:12;;;;;;;12.20;10.77;;;3.60;99.90;;;;;;4964991;28;20295;-83
2023/01/24 16:42:44;;;;;;;12.10;10.45;;;3.60;99.90;;;;;;5003116;28;20239;-82
2023/01/24 16:45:14;;;;;;;11.20;10.02;;;3.60;99.90;;;;;;5053439;28;20221;-83
2023/01/24 16:47:45;;;;;;;14.75;11.90;;;3.60;99.90;;;;;;5052365;28;20305;-83
2023/01/24 16:50:23;;;;;;;10.93;9.57;;;3.70;99.90;;;;;;5052830;28;20233;-82
2023/01/24 16:52:52;;;;;;;11.90;10.65;;;3.60;99.90;;;;;;5053176;28;20225;-83
2023/01/24 16:55:21;;;;;;;12.10;10.40;;;3.60;99.90;;;;;;5052910;28;20216;-82
2023/01/24 16:57:51;;;;;;;15.57;11.13;;;3.60;99.90;;;;;;5052740;28;20213;-83
2023/01/24 17:00:21;;;;;;;16.00;10.80;;;3.60;99.90;;;;;;5053157;28;20237;-83
2023/01/24 17:02:59;;;;;;;11.20;9.98;;;3.60;99.90;;;;;;5082693;22;20220;-84
2023/01/24 17:05:31;;;;;;;12.93;10.13;;;3.60;99.90;;;;;;5115645;28;20271;-82
2023/01/24 17:08:03;;;;;;;15.00;11.77;;;3.60;99.90;;;;;;5115145;28;20296;-82
2023/01/24 17:10:45;;;;;;;12.35;10.68;;;3.60;99.90;;;;;;5115755;28;20224;-83
2023/01/24 17:13:14;;;;;;;13.15;11.05;;;3.60;99.90;;;;;;5115254;27;20310;-83
2023/01/24 17:16:16;;;;;;;20.33;11.35;;;3.60;99.90;;;;;;5115676;28;20218;-83
2023/01/24 17:18:44;;;;;;;12.02;10.27;;;3.60;99.90;;;;;;5115157;28;20291;-83
2023/01/24 17:21:38;;;;;;;14.55;10.90;;;3.60;99.90;;;;;;5115012;28;20202;-83